Aérodrome :
LOGIN :

S'inscrire | Disclaimer

   EN    FR    IT 

 










Légende :    VFR   VFR Marginal   IFR   IFR Intensif   IFR Très Intensif
Visi : 
Plafond : 
>= 8 km
>= 3000ft
5 à 8 km
1000 à 3000 ft
1500m à 5 km
500 à 1000 ft
800 à 1500m
200 à 500 ft
< 800m
< 200 ft
Symboles :   Orages  Brouillard  Fortes neiges  Fortes précipitations  Vent > 20 kt
SIGMETs :   Divers  Orages  Givrage  Turbulence  Onde Orograph.  Cendres Volcan.







- Altitude de l'aérodrome : 697 ft
- Code IATA : PEG


LIRZ - San Edigio Perugia

DERNIER METAR :
  • 101650Z 03004KT 9999 FEW050 05/03 Q1015

METARs EXPIRÉS :
  • 101550Z VRB02KT 9999 FEW050 07/05 Q1015
  • 101450Z 33005KT 9999 FEW050 09/06 Q1014

TAF TAF LIRZ
Valide du 10 à 12h jusqu'au 11 à 12h UTC


101100Z 1012/1112 VRB06KT 7000 SCT030
Pas de NOTAMs connus pour ce terrain.
2 SIGMETs publiés pour la FIR Roma (LIRR) :
 
Turbulence forte
LIRR SIGMET 15 VALID 101800/102100 LIIB
LIRR ROMA FIR SEV TURB FCST NE OF LINE N4122 E00754 - N3612 E01411 FL150/350 STNR NC=
Turbulence forte
LIRR SIGMET 14 VALID 101600/101800 LIIB
LIRR ROMA FIR SEV TURB FCST NE OF LINE N4122 E00754 - N3612 E01411 FL150/350 STNR NC=



MET'MAP, la Météo Aéronautique d'un coup d'oeil ! - Copyright ORBIFLY Décembre 2007 - Disclaimer

ORBIFLY MET'MAP TEAM :

Programmation & Développement : Alexandra Zaïnal
Conception & Développement : Baudouin d'Aumeries
Co-Programmation & Développement : Marc-Olivier Méhu
Soutien technique & logistique : Manuel Goepfert

Contact : metmap@orbifly.com




SOURCES & CREDITS :

   NOAA